sensor_id;sensor_type;location;lat;lon;timestamp;temperature;humidity
39655;DHT22;25336;59.944;11.010;2022-09-13T00:01:03;17.00;76.60
39655;DHT22;25336;59.944;11.010;2022-09-13T00:03:29;17.00;76.50
39655;DHT22;25336;59.944;11.010;2022-09-13T00:05:55;17.10;76.70
39655;DHT22;25336;59.944;11.010;2022-09-13T00:08:21;17.10;76.90
39655;DHT22;25336;59.944;11.010;2022-09-13T00:10:47;17.10;76.80
39655;DHT22;25336;59.944;11.010;2022-09-13T00:13:14;17.10;76.90
39655;DHT22;25336;59.944;11.010;2022-09-13T00:15:48;17.10;76.90
39655;DHT22;25336;59.944;11.010;2022-09-13T00:18:15;17.10;77.20
39655;DHT22;25336;59.944;11.010;2022-09-13T00:20:41;17.10;77.00
39655;DHT22;25336;59.944;11.010;2022-09-13T00:23:07;17.10;76.90
39655;DHT22;25336;59.944;11.010;2022-09-13T00:25:32;17.10;76.90
39655;DHT22;25336;59.944;11.010;2022-09-13T00:27:58;17.10;76.90
39655;DHT22;25336;59.944;11.010;2022-09-13T00:30:24;17.10;76.90
39655;DHT22;25336;59.944;11.010;2022-09-13T00:32:49;17.10;76.90
39655;DHT22;25336;59.944;11.010;2022-09-13T00:35:15;17.10;76.90
39655;DHT22;25336;59.944;11.010;2022-09-13T00:37:40;17.20;77.00
39655;DHT22;25336;59.944;11.010;2022-09-13T00:40:06;17.20;77.00
39655;DHT22;25336;59.944;11.010;2022-09-13T00:42:32;17.20;77.00
39655;DHT22;25336;59.944;11.010;2022-09-13T00:45:01;17.20;77.10
39655;DHT22;25336;59.944;11.010;2022-09-13T00:47:35;17.20;77.10
39655;DHT22;25336;59.944;11.010;2022-09-13T00:53:02;17.20;77.40
39655;DHT22;25336;59.944;11.010;2022-09-13T00:55:34;16.80;76.80
39655;DHT22;25336;59.944;11.010;2022-09-13T00:58:07;17.20;77.10
39655;DHT22;25336;59.944;11.010;2022-09-13T01:00:34;17.20;76.80
39655;DHT22;25336;59.944;11.010;2022-09-13T01:03:03;17.10;76.50
39655;DHT22;25336;59.944;11.010;2022-09-13T01:05:34;17.10;76.50
39655;DHT22;25336;59.944;11.010;2022-09-13T01:08:01;17.10;76.30
39655;DHT22;25336;59.944;11.010;2022-09-13T01:10:27;17.10;76.00
39655;DHT22;25336;59.944;11.010;2022-09-13T01:13:05;17.10;75.80
39655;DHT22;25336;59.944;11.010;2022-09-13T01:15:37;17.10;75.60
39655;DHT22;25336;59.944;11.010;2022-09-13T01:18:03;17.10;75.40
39655;DHT22;25336;59.944;11.010;2022-09-13T01:34:12;17.00;76.20
39655;DHT22;25336;59.944;11.010;2022-09-13T01:37:05;17.00;75.80
39655;DHT22;25336;59.944;11.010;2022-09-13T01:42:15;17.00;75.60
39655;DHT22;25336;59.944;11.010;2022-09-13T01:47:56;17.00;75.30
39655;DHT22;25336;59.944;11.010;2022-09-13T01:50:38;17.00;75.10
39655;DHT22;25336;59.944;11.010;2022-09-13T01:53:16;16.90;74.80
39655;DHT22;25336;59.944;11.010;2022-09-13T01:55:49;16.90;74.60
39655;DHT22;25336;59.944;11.010;2022-09-13T01:58:36;16.80;74.40
39655;DHT22;25336;59.944;11.010;2022-09-13T02:04:08;16.80;74.30
39655;DHT22;25336;59.944;11.010;2022-09-13T02:06:43;16.00;73.80
39655;DHT22;25336;59.944;11.010;2022-09-13T02:09:15;16.80;74.30
39655;DHT22;25336;59.944;11.010;2022-09-13T02:11:47;16.80;74.30
39655;DHT22;25336;59.944;11.010;2022-09-13T02:14:19;16.80;74.20
39655;DHT22;25336;59.944;11.010;2022-09-13T02:16:53;16.80;74.10
39655;DHT22;25336;59.944;11.010;2022-09-13T02:19:32;16.80;74.10
39655;DHT22;25336;59.944;11.010;2022-09-13T02:21:59;16.70;73.90
39655;DHT22;25336;59.944;11.010;2022-09-13T02:24:32;16.70;73.80
39655;DHT22;25336;59.944;11.010;2022-09-13T02:27:02;16.70;73.80
39655;DHT22;25336;59.944;11.010;2022-09-13T02:29:30;16.70;73.70
39655;DHT22;25336;59.944;11.010;2022-09-13T02:32:15;16.70;73.70
39655;DHT22;25336;59.944;11.010;2022-09-13T02:34:53;16.60;73.20
39655;DHT22;25336;59.944;11.010;2022-09-13T02:37:19;16.60;73.20
39655;DHT22;25336;59.944;11.010;2022-09-13T02:39:50;16.60;73.10
39655;DHT22;25336;59.944;11.010;2022-09-13T02:42:25;16.60;73.00
39655;DHT22;25336;59.944;11.010;2022-09-13T02:44:55;16.60;72.80
39655;DHT22;25336;59.944;11.010;2022-09-13T02:47:40;16.50;72.70
39655;DHT22;25336;59.944;11.010;2022-09-13T02:58:31;16.50;72.90
39655;DHT22;25336;59.944;11.010;2022-09-13T03:01:00;16.40;72.80
39655;DHT22;25336;59.944;11.010;2022-09-13T03:03:25;16.40;72.80
39655;DHT22;25336;59.944;11.010;2022-09-13T03:05:52;16.40;72.90
39655;DHT22;25336;59.944;11.010;2022-09-13T03:08:18;16.40;72.90
39655;DHT22;25336;59.944;11.010;2022-09-13T03:25:32;16.20;73.00
39655;DHT22;25336;59.944;11.010;2022-09-13T03:30:47;16.10;73.20
39655;DHT22;25336;59.944;11.010;2022-09-13T03:33:31;16.10;73.30
39655;DHT22;25336;59.944;11.010;2022-09-13T03:36:04;16.00;73.60
39655;DHT22;25336;59.944;11.010;2022-09-13T03:39:16;16.00;73.70
39655;DHT22;25336;59.944;11.010;2022-09-13T03:41:48;16.10;74.10
39655;DHT22;25336;59.944;11.010;2022-09-13T03:44:18;16.00;73.80
39655;DHT22;25336;59.944;11.010;2022-09-13T03:46:48;16.10;73.90
39655;DHT22;25336;59.944;11.010;2022-09-13T03:49:17;16.10;73.90
39655;DHT22;25336;59.944;11.010;2022-09-13T03:51:48;16.00;74.00
39655;DHT22;25336;59.944;11.010;2022-09-13T03:54:18;16.10;74.20
39655;DHT22;25336;59.944;11.010;2022-09-13T03:57:04;16.00;74.20
39655;DHT22;25336;59.944;11.010;2022-09-13T03:59:30;16.10;74.50
39655;DHT22;25336;59.944;11.010;2022-09-13T04:01:56;16.10;74.20
39655;DHT22;25336;59.944;11.010;2022-09-13T04:04:21;16.10;74.40
39655;DHT22;25336;59.944;11.010;2022-09-13T04:06:47;17.80;75.50
39655;DHT22;25336;59.944;11.010;2022-09-13T04:09:13;16.10;74.60
39655;DHT22;25336;59.944;11.010;2022-09-13T04:11:38;16.10;74.60
39655;DHT22;25336;59.944;11.010;2022-09-13T04:14:05;16.10;74.70
39655;DHT22;25336;59.944;11.010;2022-09-13T04:16:31;16.10;74.70
39655;DHT22;25336;59.944;11.010;2022-09-13T04:18:56;16.10;74.90
39655;DHT22;25336;59.944;11.010;2022-09-13T04:21:22;16.10;74.90
39655;DHT22;25336;59.944;11.010;2022-09-13T04:23:49;16.10;75.00
39655;DHT22;25336;59.944;11.010;2022-09-13T04:26:15;16.20;75.20
39655;DHT22;25336;59.944;11.010;2022-09-13T04:28:41;16.10;75.20
39655;DHT22;25336;59.944;11.010;2022-09-13T04:31:07;16.20;75.30
39655;DHT22;25336;59.944;11.010;2022-09-13T04:33:33;16.10;75.20
39655;DHT22;25336;59.944;11.010;2022-09-13T04:35:59;16.20;75.40
39655;DHT22;25336;59.944;11.010;2022-09-13T04:38:25;16.20;75.30
39655;DHT22;25336;59.944;11.010;2022-09-13T04:40:52;16.20;75.30
39655;DHT22;25336;59.944;11.010;2022-09-13T04:43:19;16.20;75.40
39655;DHT22;25336;59.944;11.010;2022-09-13T04:45:44;16.20;75.30
39655;DHT22;25336;59.944;11.010;2022-09-13T04:48:11;16.30;75.40
39655;DHT22;25336;59.944;11.010;2022-09-13T04:50:36;16.20;75.30
39655;DHT22;25336;59.944;11.010;2022-09-13T04:53:02;16.30;75.40
39655;DHT22;25336;59.944;11.010;2022-09-13T04:55:28;16.20;75.40
39655;DHT22;25336;59.944;11.010;2022-09-13T04:57:54;16.30;75.50
39655;DHT22;25336;59.944;11.010;2022-09-13T05:00:21;16.30;75.40
39655;DHT22;25336;59.944;11.010;2022-09-13T05:02:47;16.30;75.50
39655;DHT22;25336;59.944;11.010;2022-09-13T05:05:13;16.30;75.30
39655;DHT22;25336;59.944;11.010;2022-09-13T05:07:39;16.30;75.30
39655;DHT22;25336;59.944;11.010;2022-09-13T05:10:05;16.30;75.30
39655;DHT22;25336;59.944;11.010;2022-09-13T05:12:31;16.30;75.30
39655;DHT22;25336;59.944;11.010;2022-09-13T05:14:57;16.30;75.30
39655;DHT22;25336;59.944;11.010;2022-09-13T05:17:22;16.30;75.30
39655;DHT22;25336;59.944;11.010;2022-09-13T05:19:48;16.30;75.20
39655;DHT22;25336;59.944;11.010;2022-09-13T05:22:13;16.30;75.30
39655;DHT22;25336;59.944;11.010;2022-09-13T05:24:42;16.30;75.20
39655;DHT22;25336;59.944;11.010;2022-09-13T05:27:09;18.00;76.20
39655;DHT22;25336;59.944;11.010;2022-09-13T05:29:35;16.30;75.00
39655;DHT22;25336;59.944;11.010;2022-09-13T05:32:01;16.30;74.90
39655;DHT22;25336;59.944;11.010;2022-09-13T05:34:26;16.30;74.80
39655;DHT22;25336;59.944;11.010;2022-09-13T05:36:52;16.30;74.70
39655;DHT22;25336;59.944;11.010;2022-09-13T05:39:18;16.30;74.70
39655;DHT22;25336;59.944;11.010;2022-09-13T05:41:47;16.30;74.70
39655;DHT22;25336;59.944;11.010;2022-09-13T05:44:13;16.20;74.60
39655;DHT22;25336;59.944;11.010;2022-09-13T05:46:39;16.20;74.40
39655;DHT22;25336;59.944;11.010;2022-09-13T05:49:10;16.20;74.20
39655;DHT22;25336;59.944;11.010;2022-09-13T05:51:36;16.10;74.20
39655;DHT22;25336;59.944;11.010;2022-09-13T05:54:02;16.10;74.30
39655;DHT22;25336;59.944;11.010;2022-09-13T05:56:29;16.10;74.40
39655;DHT22;25336;59.944;11.010;2022-09-13T05:58:55;16.10;74.70
39655;DHT22;25336;59.944;11.010;2022-09-13T06:01:26;16.00;74.80
39655;DHT22;25336;59.944;11.010;2022-09-13T06:03:53;16.00;75.00
39655;DHT22;25336;59.944;11.010;2022-09-13T06:06:20;16.00;75.10
39655;DHT22;25336;59.944;11.010;2022-09-13T06:08:47;16.10;75.40
39655;DHT22;25336;59.944;11.010;2022-09-13T06:11:15;16.00;75.50
39655;DHT22;25336;59.944;11.010;2022-09-13T06:13:42;16.00;75.80
39655;DHT22;25336;59.944;11.010;2022-09-13T06:16:09;16.00;75.90
39655;DHT22;25336;59.944;11.010;2022-09-13T06:18:36;16.10;76.00
39655;DHT22;25336;59.944;11.010;2022-09-13T06:21:07;16.10;76.00
39655;DHT22;25336;59.944;11.010;2022-09-13T06:23:33;16.10;75.70
39655;DHT22;25336;59.944;11.010;2022-09-13T06:26:08;16.10;75.50
39655;DHT22;25336;59.944;11.010;2022-09-13T06:28:35;16.10;75.50
39655;DHT22;25336;59.944;11.010;2022-09-13T06:31:06;16.10;75.50
39655;DHT22;25336;59.944;11.010;2022-09-13T06:33:32;16.10;75.70
39655;DHT22;25336;59.944;11.010;2022-09-13T06:38:34;16.20;75.70
39655;DHT22;25336;59.944;11.010;2022-09-13T06:41:02;16.20;75.40
39655;DHT22;25336;59.944;11.010;2022-09-13T06:43:29;16.30;75.30
39655;DHT22;25336;59.944;11.010;2022-09-13T06:46:02;16.20;75.20
39655;DHT22;25336;59.944;11.010;2022-09-13T06:48:33;16.20;75.30
39655;DHT22;25336;59.944;11.010;2022-09-13T06:51:01;16.20;75.30
39655;DHT22;25336;59.944;11.010;2022-09-13T06:53:26;16.20;75.40
39655;DHT22;25336;59.944;11.010;2022-09-13T06:56:01;16.30;75.60
39655;DHT22;25336;59.944;11.010;2022-09-13T06:58:28;16.30;75.60
39655;DHT22;25336;59.944;11.010;2022-09-13T07:01:03;16.30;75.60
39655;DHT22;25336;59.944;11.010;2022-09-13T07:03:29;16.40;75.70
39655;DHT22;25336;59.944;11.010;2022-09-13T07:05:55;16.50;75.50
39655;DHT22;25336;59.944;11.010;2022-09-13T07:08:20;16.60;75.00
39655;DHT22;25336;59.944;11.010;2022-09-13T07:10:46;16.60;74.60
39655;DHT22;25336;59.944;11.010;2022-09-13T07:13:11;16.60;74.40
39655;DHT22;25336;59.944;11.010;2022-09-13T07:15:37;16.60;74.20
39655;DHT22;25336;59.944;11.010;2022-09-13T07:18:03;16.60;74.10
39655;DHT22;25336;59.944;11.010;2022-09-13T07:20:29;16.70;74.00
39655;DHT22;25336;59.944;11.010;2022-09-13T07:22:54;16.70;73.90
39655;DHT22;25336;59.944;11.010;2022-09-13T07:25:20;16.70;73.80
39655;DHT22;25336;59.944;11.010;2022-09-13T07:27:46;16.80;73.60
39655;DHT22;25336;59.944;11.010;2022-09-13T07:30:11;16.80;73.50
39655;DHT22;25336;59.944;11.010;2022-09-13T07:32:37;16.80;73.20
39655;DHT22;25336;59.944;11.010;2022-09-13T07:35:03;16.90;72.70
39655;DHT22;25336;59.944;11.010;2022-09-13T07:37:31;16.90;72.50
39655;DHT22;25336;59.944;11.010;2022-09-13T07:39:56;16.90;72.10
39655;DHT22;25336;59.944;11.010;2022-09-13T07:42:22;16.90;72.00
39655;DHT22;25336;59.944;11.010;2022-09-13T07:44:48;17.00;71.90
39655;DHT22;25336;59.944;11.010;2022-09-13T07:47:13;17.00;71.60
39655;DHT22;25336;59.944;11.010;2022-09-13T07:49:42;17.00;71.60
39655;DHT22;25336;59.944;11.010;2022-09-13T07:52:08;17.00;71.30
39655;DHT22;25336;59.944;11.010;2022-09-13T07:54:34;17.00;71.50
39655;DHT22;25336;59.944;11.010;2022-09-13T07:57:01;17.00;71.70
39655;DHT22;25336;59.944;11.010;2022-09-13T07:59:30;17.00;71.70
39655;DHT22;25336;59.944;11.010;2022-09-13T08:01:55;17.00;71.60
39655;DHT22;25336;59.944;11.010;2022-09-13T08:04:24;17.10;71.00
39655;DHT22;25336;59.944;11.010;2022-09-13T08:06:50;17.10;70.30
39655;DHT22;25336;59.944;11.010;2022-09-13T08:09:16;17.10;69.90
39655;DHT22;25336;59.944;11.010;2022-09-13T08:11:44;17.20;69.50
39655;DHT22;25336;59.944;11.010;2022-09-13T08:14:12;17.20;69.30
39655;DHT22;25336;59.944;11.010;2022-09-13T08:16:39;17.20;69.30
39655;DHT22;25336;59.944;11.010;2022-09-13T08:19:05;17.30;69.00
39655;DHT22;25336;59.944;11.010;2022-09-13T08:21:36;17.30;68.40
39655;DHT22;25336;59.944;11.010;2022-09-13T08:24:04;17.30;67.60
39655;DHT22;25336;59.944;11.010;2022-09-13T08:26:32;17.20;67.30
39655;DHT22;25336;59.944;11.010;2022-09-13T08:29:04;17.20;66.90
39655;DHT22;25336;59.944;11.010;2022-09-13T08:31:30;17.20;66.30
39655;DHT22;25336;59.944;11.010;2022-09-13T08:33:56;17.20;66.40
39655;DHT22;25336;59.944;11.010;2022-09-13T08:36:23;17.20;67.60
39655;DHT22;25336;59.944;11.010;2022-09-13T08:38:57;17.10;66.80
39655;DHT22;25336;59.944;11.010;2022-09-13T08:46:28;17.00;65.50
39655;DHT22;25336;59.944;11.010;2022-09-13T08:49:00;16.70;65.10
39655;DHT22;25336;59.944;11.010;2022-09-13T08:53:58;16.90;65.00
39655;DHT22;25336;59.944;11.010;2022-09-13T09:07:18;16.70;65.10
39655;DHT22;25336;59.944;11.010;2022-09-13T09:10:24;16.70;64.60
39655;DHT22;25336;59.944;11.010;2022-09-13T09:13:05;16.70;64.80
39655;DHT22;25336;59.944;11.010;2022-09-13T09:15:57;15.60;64.10
39655;DHT22;25336;59.944;11.010;2022-09-13T09:18:37;16.60;64.00
39655;DHT22;25336;59.944;11.010;2022-09-13T09:21:11;16.60;64.70
39655;DHT22;25336;59.944;11.010;2022-09-13T09:23:50;16.60;65.20
39655;DHT22;25336;59.944;11.010;2022-09-13T09:26:17;16.80;65.50
39655;DHT22;25336;59.944;11.010;2022-09-13T09:29:20;16.60;65.70
39655;DHT22;25336;59.944;11.010;2022-09-13T09:34:50;16.60;65.60
39655;DHT22;25336;59.944;11.010;2022-09-13T09:37:20;16.60;65.90
39655;DHT22;25336;59.944;11.010;2022-09-13T09:39:48;16.60;65.70
39655;DHT22;25336;59.944;11.010;2022-09-13T09:42:19;16.70;65.40
39655;DHT22;25336;59.944;11.010;2022-09-13T09:44:59;16.70;65.20
39655;DHT22;25336;59.944;11.010;2022-09-13T09:47:41;18.10;65.50
39655;DHT22;25336;59.944;11.010;2022-09-13T09:50:31;16.70;64.10
39655;DHT22;25336;59.944;11.010;2022-09-13T09:53:02;16.80;64.60
39655;DHT22;25336;59.944;11.010;2022-09-13T09:58:15;16.80;64.40
39655;DHT22;25336;59.944;11.010;2022-09-13T10:00:57;16.80;64.20
39655;DHT22;25336;59.944;11.010;2022-09-13T10:03:30;16.90;63.90
39655;DHT22;25336;59.944;11.010;2022-09-13T10:06:17;16.90;64.20
39655;DHT22;25336;59.944;11.010;2022-09-13T10:11:21;17.00;64.10
39655;DHT22;25336;59.944;11.010;2022-09-13T10:14:00;17.00;64.20
39655;DHT22;25336;59.944;11.010;2022-09-13T10:16:29;17.00;63.60
39655;DHT22;25336;59.944;11.010;2022-09-13T10:19:28;17.10;63.70
39655;DHT22;25336;59.944;11.010;2022-09-13T10:22:07;17.10;62.90
39655;DHT22;25336;59.944;11.010;2022-09-13T10:24:34;17.10;63.20
39655;DHT22;25336;59.944;11.010;2022-09-13T10:27:01;17.10;63.50
39655;DHT22;25336;59.944;11.010;2022-09-13T10:29:29;17.10;63.70
39655;DHT22;25336;59.944;11.010;2022-09-13T10:31:56;17.20;63.30
39655;DHT22;25336;59.944;11.010;2022-09-13T10:34:32;17.20;63.30
39655;DHT22;25336;59.944;11.010;2022-09-13T10:37:10;17.20;62.80
39655;DHT22;25336;59.944;11.010;2022-09-13T10:42:20;17.20;62.70
39655;DHT22;25336;59.944;11.010;2022-09-13T10:45:03;17.30;63.40
39655;DHT22;25336;59.944;11.010;2022-09-13T10:47:51;17.30;63.30
39655;DHT22;25336;59.944;11.010;2022-09-13T10:50:26;17.40;62.60
39655;DHT22;25336;59.944;11.010;2022-09-13T10:52:56;17.40;62.70
39655;DHT22;25336;59.944;11.010;2022-09-13T10:55:25;17.40;62.10
39655;DHT22;25336;59.944;11.010;2022-09-13T10:58:11;17.40;62.20
39655;DHT22;25336;59.944;11.010;2022-09-13T11:17:11;17.10;62.80
39655;DHT22;25336;59.944;11.010;2022-09-13T11:19:46;17.00;63.40
39655;DHT22;25336;59.944;11.010;2022-09-13T11:22:33;16.90;63.90
39655;DHT22;25336;59.944;11.010;2022-09-13T11:33:03;16.90;65.40
39655;DHT22;25336;59.944;11.010;2022-09-13T11:41:41;16.90;66.20
39655;DHT22;25336;59.944;11.010;2022-09-13T11:44:18;16.90;65.70
39655;DHT22;25336;59.944;11.010;2022-09-13T11:52:19;17.20;65.30
39655;DHT22;25336;59.944;11.010;2022-09-13T11:57:36;16.20;63.30
39655;DHT22;25336;59.944;11.010;2022-09-13T12:05:21;17.50;63.70
39655;DHT22;25336;59.944;11.010;2022-09-13T12:08:11;17.60;63.60
39655;DHT22;25336;59.944;11.010;2022-09-13T12:10:55;17.70;62.70
39655;DHT22;25336;59.944;11.010;2022-09-13T12:13:57;17.70;62.50
39655;DHT22;25336;59.944;11.010;2022-09-13T12:16:29;17.60;62.90
39655;DHT22;25336;59.944;11.010;2022-09-13T12:19:33;17.80;62.30
39655;DHT22;25336;59.944;11.010;2022-09-13T12:22:01;17.80;61.90
39655;DHT22;25336;59.944;11.010;2022-09-13T12:24:47;17.40;61.80
39655;DHT22;25336;59.944;11.010;2022-09-13T12:27:41;17.70;61.80
39655;DHT22;25336;59.944;11.010;2022-09-13T12:30:19;17.60;62.00
39655;DHT22;25336;59.944;11.010;2022-09-13T12:32:46;17.50;62.90
39655;DHT22;25336;59.944;11.010;2022-09-13T12:59:31;17.90;64.00
39655;DHT22;25336;59.944;11.010;2022-09-13T13:02:18;18.00;63.70
39655;DHT22;25336;59.944;11.010;2022-09-13T13:04:51;18.00;63.40
39655;DHT22;25336;59.944;11.010;2022-09-13T13:07:21;18.00;63.30
39655;DHT22;25336;59.944;11.010;2022-09-13T13:09:50;18.10;63.40
39655;DHT22;25336;59.944;11.010;2022-09-13T13:12:49;18.10;63.30
39655;DHT22;25336;59.944;11.010;2022-09-13T13:17:43;18.10;62.70
39655;DHT22;25336;59.944;11.010;2022-09-13T13:20:43;18.10;62.70
39655;DHT22;25336;59.944;11.010;2022-09-13T13:36:42;18.10;62.40
39655;DHT22;25336;59.944;11.010;2022-09-13T13:39:12;18.10;62.40
39655;DHT22;25336;59.944;11.010;2022-09-13T13:46:50;18.00;62.30
39655;DHT22;25336;59.944;11.010;2022-09-13T13:57:32;18.00;62.10
39655;DHT22;25336;59.944;11.010;2022-09-13T14:10:35;18.00;62.00
39655;DHT22;25336;59.944;11.010;2022-09-13T14:15:42;17.90;62.10
39655;DHT22;25336;59.944;11.010;2022-09-13T14:21:03;17.90;62.00
39655;DHT22;25336;59.944;11.010;2022-09-13T14:23:30;17.90;62.00
39655;DHT22;25336;59.944;11.010;2022-09-13T14:25:57;17.30;61.80
39655;DHT22;25336;59.944;11.010;2022-09-13T14:28:24;17.90;62.20
39655;DHT22;25336;59.944;11.010;2022-09-13T14:30:56;17.90;62.20
39655;DHT22;25336;59.944;11.010;2022-09-13T14:35:57;17.90;62.00
39655;DHT22;25336;59.944;11.010;2022-09-13T14:38:26;17.90;62.20
39655;DHT22;25336;59.944;11.010;2022-09-13T14:41:00;17.90;62.30
39655;DHT22;25336;59.944;11.010;2022-09-13T14:43:28;17.90;62.30
39655;DHT22;25336;59.944;11.010;2022-09-13T14:46:07;17.90;62.60
39655;DHT22;25336;59.944;11.010;2022-09-13T14:48:47;19.10;63.30
39655;DHT22;25336;59.944;11.010;2022-09-13T14:51:25;18.10;62.30
39655;DHT22;25336;59.944;11.010;2022-09-13T14:54:05;18.20;62.40
39655;DHT22;25336;59.944;11.010;2022-09-13T14:56:40;18.30;61.30
39655;DHT22;25336;59.944;11.010;2022-09-13T14:59:22;18.40;60.90
39655;DHT22;25336;59.944;11.010;2022-09-13T15:01:49;18.50;60.10
39655;DHT22;25336;59.944;11.010;2022-09-13T15:04:16;18.50;60.20
39655;DHT22;25336;59.944;11.010;2022-09-13T15:06:42;18.50;59.60
39655;DHT22;25336;59.944;11.010;2022-09-13T15:11:36;18.50;59.00
39655;DHT22;25336;59.944;11.010;2022-09-13T15:16:54;18.40;59.00
39655;DHT22;25336;59.944;11.010;2022-09-13T15:21:51;18.30;59.10
39655;DHT22;25336;59.944;11.010;2022-09-13T15:24:24;18.30;59.10
39655;DHT22;25336;59.944;11.010;2022-09-13T15:27:06;18.20;58.70
39655;DHT22;25336;59.944;11.010;2022-09-13T15:29:32;18.10;58.10
39655;DHT22;25336;59.944;11.010;2022-09-13T15:32:03;18.10;58.60
39655;DHT22;25336;59.944;11.010;2022-09-13T15:34:29;18.00;58.40
39655;DHT22;25336;59.944;11.010;2022-09-13T15:37:06;17.90;59.10
39655;DHT22;25336;59.944;11.010;2022-09-13T15:40:00;17.80;58.40
39655;DHT22;25336;59.944;11.010;2022-09-13T15:42:26;17.80;58.50
39655;DHT22;25336;59.944;11.010;2022-09-13T15:44:52;17.70;58.90
39655;DHT22;25336;59.944;11.010;2022-09-13T15:47:18;17.60;59.10
39655;DHT22;25336;59.944;11.010;2022-09-13T15:49:49;17.60;59.20
39655;DHT22;25336;59.944;11.010;2022-09-13T15:52:17;17.60;59.20
39655;DHT22;25336;59.944;11.010;2022-09-13T15:54:48;17.50;59.30
39655;DHT22;25336;59.944;11.010;2022-09-13T15:57:23;17.60;59.20
39655;DHT22;25336;59.944;11.010;2022-09-13T15:59:50;17.50;59.00
39655;DHT22;25336;59.944;11.010;2022-09-13T16:02:27;17.50;59.40
39655;DHT22;25336;59.944;11.010;2022-09-13T16:04:54;17.50;59.90
39655;DHT22;25336;59.944;11.010;2022-09-13T16:07:20;17.60;60.20
39655;DHT22;25336;59.944;11.010;2022-09-13T16:09:46;17.50;60.10
39655;DHT22;25336;59.944;11.010;2022-09-13T16:12:13;17.60;60.20
39655;DHT22;25336;59.944;11.010;2022-09-13T16:14:39;17.60;59.90
39655;DHT22;25336;59.944;11.010;2022-09-13T16:17:08;17.60;59.90
39655;DHT22;25336;59.944;11.010;2022-09-13T16:19:34;18.80;60.40
39655;DHT22;25336;59.944;11.010;2022-09-13T16:22:00;17.60;59.60
39655;DHT22;25336;59.944;11.010;2022-09-13T16:24:26;17.60;59.50
39655;DHT22;25336;59.944;11.010;2022-09-13T16:26:52;17.70;59.60
39655;DHT22;25336;59.944;11.010;2022-09-13T16:29:17;17.60;59.60
39655;DHT22;25336;59.944;11.010;2022-09-13T16:31:43;17.60;59.70
39655;DHT22;25336;59.944;11.010;2022-09-13T16:34:09;17.60;60.10
39655;DHT22;25336;59.944;11.010;2022-09-13T16:36:34;17.70;59.70
39655;DHT22;25336;59.944;11.010;2022-09-13T16:39:00;17.60;59.70
39655;DHT22;25336;59.944;11.010;2022-09-13T16:41:26;17.60;59.60
39655;DHT22;25336;59.944;11.010;2022-09-13T16:43:53;17.60;59.60
39655;DHT22;25336;59.944;11.010;2022-09-13T16:46:20;17.60;59.60
39655;DHT22;25336;59.944;11.010;2022-09-13T16:48:51;17.50;59.50
39655;DHT22;25336;59.944;11.010;2022-09-13T16:51:18;17.50;59.30
39655;DHT22;25336;59.944;11.010;2022-09-13T16:53:44;17.50;59.40
39655;DHT22;25336;59.944;11.010;2022-09-13T16:56:12;17.50;59.30
39655;DHT22;25336;59.944;11.010;2022-09-13T16:58:40;17.50;59.20
39655;DHT22;25336;59.944;11.010;2022-09-13T17:01:08;17.40;59.30
39655;DHT22;25336;59.944;11.010;2022-09-13T17:03:35;17.40;59.40
39655;DHT22;25336;59.944;11.010;2022-09-13T17:06:03;17.40;59.50
39655;DHT22;25336;59.944;11.010;2022-09-13T17:08:30;17.40;59.50
39655;DHT22;25336;59.944;11.010;2022-09-13T17:10:56;17.30;59.60
39655;DHT22;25336;59.944;11.010;2022-09-13T17:13:22;17.30;59.60
39655;DHT22;25336;59.944;11.010;2022-09-13T17:15:48;17.30;59.60
39655;DHT22;25336;59.944;11.010;2022-09-13T17:18:14;17.30;59.60
39655;DHT22;25336;59.944;11.010;2022-09-13T17:20:48;17.20;59.60
39655;DHT22;25336;59.944;11.010;2022-09-13T17:23:14;17.20;59.60
39655;DHT22;25336;59.944;11.010;2022-09-13T17:25:47;17.20;59.70
39655;DHT22;25336;59.944;11.010;2022-09-13T17:28:15;17.20;59.80
39655;DHT22;25336;59.944;11.010;2022-09-13T17:30:41;17.20;59.80
39655;DHT22;25336;59.944;11.010;2022-09-13T17:33:08;17.10;59.90
39655;DHT22;25336;59.944;11.010;2022-09-13T17:35:34;17.10;60.00
39655;DHT22;25336;59.944;11.010;2022-09-13T17:38:00;17.10;60.00
39655;DHT22;25336;59.944;11.010;2022-09-13T17:40:28;17.00;60.10
39655;DHT22;25336;59.944;11.010;2022-09-13T17:42:54;17.00;60.20
39655;DHT22;25336;59.944;11.010;2022-09-13T17:45:20;17.00;60.40
39655;DHT22;25336;59.944;11.010;2022-09-13T17:47:46;16.90;60.60
39655;DHT22;25336;59.944;11.010;2022-09-13T17:50:12;16.90;60.90
39655;DHT22;25336;59.944;11.010;2022-09-13T17:52:38;16.90;61.10
39655;DHT22;25336;59.944;11.010;2022-09-13T17:55:04;16.80;61.40
39655;DHT22;25336;59.944;11.010;2022-09-13T17:57:30;16.80;61.70
39655;DHT22;25336;59.944;11.010;2022-09-13T17:59:55;16.80;62.10
39655;DHT22;25336;59.944;11.010;2022-09-13T18:02:21;16.80;62.40
39655;DHT22;25336;59.944;11.010;2022-09-13T18:04:50;16.70;62.60
39655;DHT22;25336;59.944;11.010;2022-09-13T18:07:16;16.70;62.90
39655;DHT22;25336;59.944;11.010;2022-09-13T18:09:41;16.60;63.00
39655;DHT22;25336;59.944;11.010;2022-09-13T18:12:08;16.60;63.20
39655;DHT22;25336;59.944;11.010;2022-09-13T18:14:33;16.60;63.40
39655;DHT22;25336;59.944;11.010;2022-09-13T18:16:59;16.50;63.60
39655;DHT22;25336;59.944;11.010;2022-09-13T18:19:24;16.50;63.80
39655;DHT22;25336;59.944;11.010;2022-09-13T18:21:50;16.50;64.40
39655;DHT22;25336;59.944;11.010;2022-09-13T18:24:16;16.40;64.10
39655;DHT22;25336;59.944;11.010;2022-09-13T18:26:41;16.40;64.10
39655;DHT22;25336;59.944;11.010;2022-09-13T18:29:12;16.40;64.30
39655;DHT22;25336;59.944;11.010;2022-09-13T18:31:39;16.40;64.40
39655;DHT22;25336;59.944;11.010;2022-09-13T18:34:10;16.30;64.30
39655;DHT22;25336;59.944;11.010;2022-09-13T18:36:37;16.30;64.70
39655;DHT22;25336;59.944;11.010;2022-09-13T18:39:04;16.30;64.60
39655;DHT22;25336;59.944;11.010;2022-09-13T18:41:33;16.30;64.70
39655;DHT22;25336;59.944;11.010;2022-09-13T18:43:59;16.20;65.00
39655;DHT22;25336;59.944;11.010;2022-09-13T18:46:29;16.20;65.10
39655;DHT22;25336;59.944;11.010;2022-09-13T18:48:56;16.20;65.30
39655;DHT22;25336;59.944;11.010;2022-09-13T18:51:28;16.20;65.30
39655;DHT22;25336;59.944;11.010;2022-09-13T18:53:54;16.20;65.60
39655;DHT22;25336;59.944;11.010;2022-09-13T18:56:21;16.10;65.60
39655;DHT22;25336;59.944;11.010;2022-09-13T18:58:48;15.80;65.60
39655;DHT22;25336;59.944;11.010;2022-09-13T19:01:24;16.10;66.00